createdAt,value
2019-04-10T00:00:23.183Z,51.90
2019-04-10T00:02:50.553Z,50.97
2019-04-10T00:05:18.005Z,52.10
2019-04-10T00:07:45.836Z,51.80
2019-04-10T00:10:13.899Z,51.73
2019-04-10T00:12:42.293Z,51.43
2019-04-10T00:15:09.721Z,50.27
2019-04-10T00:17:37.513Z,51.60
2019-04-10T00:20:05.100Z,51.57
2019-04-10T00:22:32.432Z,52.63
2019-04-10T00:25:00.143Z,51.93
2019-04-10T00:27:28.402Z,51.77
2019-04-10T00:29:56.481Z,52.43
2019-04-10T00:32:24.087Z,52.67
2019-04-10T00:34:51.467Z,49.07
2019-04-10T00:37:23.947Z,53.00
2019-04-10T00:39:47.828Z,51.23
2019-04-10T00:42:15.111Z,50.37
2019-04-10T00:44:42.474Z,50.23
2019-04-10T00:47:10.744Z,49.97
2019-04-10T00:49:38.307Z,49.27
2019-04-10T00:52:06.029Z,49.03
2019-04-10T00:54:33.323Z,49.93
2019-04-10T00:57:01.055Z,51.73
2019-04-10T00:59:28.513Z,50.83
2019-04-10T01:01:56.301Z,51.40
2019-04-10T01:04:24.526Z,51.90
2019-04-10T01:06:52.557Z,52.67
2019-04-10T01:09:20.173Z,51.37
2019-04-10T01:11:47.920Z,50.27
2019-04-10T01:14:15.864Z,52.97
2019-04-10T01:16:43.977Z,50.80
2019-04-10T01:19:12.072Z,54.30
2019-04-10T01:21:39.568Z,49.97
2019-04-10T01:24:06.982Z,52.87
2019-04-10T01:26:34.982Z,50.53
2019-04-10T01:29:02.973Z,50.70
2019-04-10T01:31:30.967Z,52.03
2019-04-10T01:33:58.483Z,52.30
2019-04-10T01:36:26.914Z,51.90
2019-04-10T01:38:54.350Z,50.13
2019-04-10T01:41:21.806Z,49.13
2019-04-10T01:43:49.199Z,51.70
2019-04-10T01:46:16.595Z,48.53
2019-04-10T01:48:44.059Z,48.83
2019-04-10T01:51:11.422Z,50.93
2019-04-10T01:53:38.784Z,51.90
2019-04-10T01:56:20.380Z,49.83
2019-04-10T01:58:37.011Z,48.83
2019-04-10T02:01:14.888Z,46.50
2019-04-10T02:03:42.621Z,48.30
2019-04-10T02:06:11.325Z,48.03
2019-04-10T02:08:40.231Z,45.77
2019-04-10T02:11:08.817Z,47.27
2019-04-10T02:13:36.267Z,47.77
2019-04-10T02:16:03.649Z,46.80
2019-04-10T02:18:30.871Z,45.77
2019-04-10T02:20:59.077Z,45.90
2019-04-10T02:23:26.571Z,47.47
2019-04-10T02:25:54.830Z,45.80
2019-04-10T02:28:22.769Z,44.87
2019-04-10T02:30:50.247Z,42.93
2019-04-10T02:33:17.916Z,44.13
2019-04-10T02:35:45.559Z,42.23
2019-04-10T02:38:30.931Z,42.53
2019-04-10T02:40:43.251Z,41.57
2019-04-10T02:43:12.567Z,40.97
2019-04-10T02:45:41.922Z,37.67
2019-04-10T02:48:10.061Z,39.73
2019-04-10T02:50:38.286Z,37.30
2019-04-10T02:53:06.070Z,37.00
2019-04-10T02:55:35.770Z,36.77
2019-04-10T02:58:03.198Z,36.30
2019-04-10T03:00:30.532Z,37.73
2019-04-10T03:02:59.302Z,35.37
2019-04-10T03:05:27.353Z,33.40
2019-04-10T03:07:55.926Z,35.30
2019-04-10T03:10:29.712Z,33.83
2019-04-10T03:12:52.766Z,32.47
2019-04-10T03:15:20.796Z,32.53
2019-04-10T03:17:48.398Z,33.33
2019-04-10T03:20:16.213Z,31.20
2019-04-10T03:22:43.570Z,32.30
2019-04-10T03:25:10.955Z,30.47
2019-04-10T03:27:38.712Z,29.87
2019-04-10T03:30:07.680Z,29.33
2019-04-10T03:32:55.861Z,29.97
2019-04-10T03:35:26.968Z,27.27
2019-04-10T03:37:54.417Z,26.77
2019-04-10T03:40:21.755Z,26.50
2019-04-10T03:42:49.608Z,25.40
2019-04-10T03:45:17.016Z,25.37
2019-04-10T03:47:44.277Z,23.97
2019-04-10T03:50:11.533Z,24.67
2019-04-10T03:52:38.783Z,24.63
2019-04-10T03:55:06.071Z,25.23
2019-04-10T03:57:34.299Z,23.40
2019-04-10T04:00:01.895Z,23.40
2019-04-10T04:02:29.493Z,23.00
2019-04-10T04:04:57.871Z,24.40
2019-04-10T04:07:26.997Z,24.17
2019-04-10T04:09:54.589Z,22.07
2019-04-10T04:12:22.349Z,23.03
2019-04-10T04:14:49.767Z,22.90
2019-04-10T04:17:17.025Z,22.00
2019-04-10T04:19:44.287Z,23.10
2019-04-10T04:22:12.509Z,21.20
2019-04-10T04:24:40.049Z,22.20
2019-04-10T04:27:07.596Z,23.93
2019-04-10T04:29:34.851Z,23.00
2019-04-10T04:32:02.254Z,23.50
2019-04-10T04:34:29.606Z,23.90
2019-04-10T04:36:56.918Z,23.33
2019-04-10T04:39:28.115Z,24.53
2019-04-10T04:41:54.437Z,23.93
2019-04-10T04:44:22.213Z,25.67
2019-04-10T04:46:50.589Z,24.47
2019-04-10T04:49:18.224Z,23.07
2019-04-10T04:51:45.743Z,25.20
2019-04-10T04:54:13.124Z,24.40
2019-04-10T04:56:40.455Z,23.43
2019-04-10T04:59:08.029Z,23.63
2019-04-10T05:01:35.998Z,24.27
2019-04-10T05:04:03.536Z,25.13
2019-04-10T05:06:30.921Z,27.00
2019-04-10T05:08:59.177Z,25.93
2019-04-10T05:11:26.671Z,24.30
2019-04-10T05:13:55.844Z,25.17
2019-04-10T05:16:23.259Z,25.30
2019-04-10T05:18:50.507Z,23.63
2019-04-10T05:21:17.778Z,25.70
2019-04-10T05:23:45.020Z,25.73
2019-04-10T05:26:12.376Z,25.50
2019-04-10T05:28:40.238Z,23.63
2019-04-10T05:31:10.899Z,23.33
2019-04-10T05:33:38.693Z,23.73
2019-04-10T05:36:06.947Z,24.27
2019-04-10T05:38:35.443Z,25.07
2019-04-10T05:41:03.393Z,24.10
2019-04-10T05:43:30.724Z,23.77
2019-04-10T05:45:59.191Z,25.23
2019-04-10T05:48:27.839Z,25.23
2019-04-10T05:51:02.246Z,25.60
2019-04-10T05:53:24.668Z,25.83
2019-04-10T05:55:52.048Z,24.80
2019-04-10T05:58:19.630Z,23.67
2019-04-10T06:00:47.861Z,23.63
2019-04-10T06:03:15.211Z,22.83
2019-04-10T06:05:42.489Z,24.37
2019-04-10T06:08:09.884Z,26.53
2019-04-10T06:10:37.243Z,25.53
2019-04-10T06:13:04.703Z,24.53
2019-04-10T06:15:32.063Z,25.13
2019-04-10T06:17:59.332Z,24.47
2019-04-10T06:20:29.270Z,24.30
2019-04-10T06:22:56.953Z,25.27
2019-04-10T06:25:25.005Z,23.50
2019-04-10T06:27:52.749Z,23.27
2019-04-10T06:30:20.053Z,24.57
2019-04-10T06:32:47.387Z,25.60
2019-04-10T06:35:15.597Z,23.20
2019-04-10T06:37:43.181Z,22.63
2019-04-10T06:40:17.105Z,21.97
2019-04-10T06:42:48.298Z,23.17
2019-04-10T06:45:09.809Z,23.23
2019-04-10T06:47:38.157Z,22.63
2019-04-10T06:50:06.473Z,23.90
2019-04-10T06:52:34.542Z,23.07
2019-04-10T06:55:03.027Z,24.77
2019-04-10T06:57:30.583Z,23.80
2019-04-10T06:59:59.735Z,23.60
2019-04-10T07:02:29.535Z,22.97
2019-04-10T07:05:02.998Z,23.73
2019-04-10T07:07:35.355Z,22.80
2019-04-10T07:09:56.220Z,23.80
2019-04-10T07:12:24.467Z,22.33
2019-04-10T07:14:56.967Z,23.27
2019-04-10T07:17:22.253Z,23.60
2019-04-10T07:19:49.505Z,24.63
2019-04-10T07:22:17.529Z,22.97
2019-04-10T07:24:48.116Z,26.37
2019-04-10T07:27:16.451Z,24.10
2019-04-10T07:29:50.643Z,26.77
2019-04-10T07:32:18.304Z,26.67
2019-04-10T07:34:47.157Z,23.43
2019-04-10T07:37:20.233Z,25.07
2019-04-10T07:39:45.074Z,25.23
2019-04-10T07:42:25.291Z,25.27
2019-04-10T07:44:42.785Z,24.87
2019-04-10T07:47:11.382Z,24.40
2019-04-10T07:49:39.969Z,25.57
2019-04-10T07:52:08.320Z,25.10
2019-04-10T07:54:36.082Z,25.67
2019-04-10T07:57:04.295Z,24.87
2019-04-10T07:59:35.253Z,26.53
2019-04-10T08:02:05.962Z,25.23
2019-04-10T08:04:33.176Z,25.40
2019-04-10T08:07:00.987Z,26.13
2019-04-10T08:09:29.163Z,24.40
2019-04-10T08:11:56.964Z,25.77
2019-04-10T08:14:25.787Z,24.13
2019-04-10T08:16:53.316Z,24.60
2019-04-10T08:19:20.811Z,24.73
2019-04-10T08:21:49.956Z,26.03
2019-04-10T08:24:18.163Z,24.10
2019-04-10T08:26:45.764Z,25.47
2019-04-10T08:29:14.217Z,26.77
2019-04-10T08:31:41.916Z,23.27
2019-04-10T08:34:09.456Z,24.60
2019-04-10T08:36:37.520Z,23.93
2019-04-10T08:39:06.791Z,24.30
2019-04-10T08:41:35.575Z,24.33
2019-04-10T08:44:04.403Z,25.13
2019-04-10T08:46:32.281Z,22.93
2019-04-10T08:49:00.712Z,23.33
2019-04-10T08:51:29.177Z,22.73
2019-04-10T08:53:56.901Z,22.77
2019-04-10T08:56:25.160Z,24.13
2019-04-10T08:58:52.675Z,24.33
2019-04-10T09:01:22.950Z,22.73
2019-04-10T09:03:51.100Z,22.73
2019-04-10T09:06:19.498Z,22.57
2019-04-10T09:08:47.185Z,22.53
2019-04-10T09:11:18.612Z,21.63
2019-04-10T09:13:44.463Z,22.90
2019-04-10T09:16:12.189Z,23.43
2019-04-10T09:18:39.656Z,22.50
2019-04-10T09:21:07.161Z,21.47
2019-04-10T09:23:42.862Z,21.90
2019-04-10T09:26:05.832Z,22.07
2019-04-10T09:28:33.338Z,21.63
2019-04-10T09:31:01.683Z,20.77
2019-04-10T09:33:31.980Z,21.57
2019-04-10T09:35:59.092Z,22.93
2019-04-10T09:38:26.758Z,21.40
2019-04-10T09:40:55.894Z,21.50
2019-04-10T09:43:23.477Z,21.87
2019-04-10T09:45:51.512Z,21.93
2019-04-10T09:48:19.103Z,23.00
2019-04-10T09:50:46.441Z,21.00
2019-04-10T09:53:14.970Z,22.20
2019-04-10T09:55:42.626Z,21.57
2019-04-10T09:58:11.204Z,21.23
2019-04-10T10:00:40.146Z,21.07
2019-04-10T10:03:07.936Z,21.33
2019-04-10T10:05:35.353Z,19.67
2019-04-10T10:08:02.668Z,19.40
2019-04-10T10:10:31.396Z,20.30
2019-04-10T10:12:59.170Z,20.80
2019-04-10T10:15:27.411Z,19.73
2019-04-10T10:17:55.108Z,20.50
2019-04-10T10:20:23.802Z,20.47
2019-04-10T10:22:51.815Z,19.17
2019-04-10T10:25:19.479Z,19.53
2019-04-10T10:27:46.942Z,18.10
2019-04-10T10:30:15.473Z,19.50
2019-04-10T10:32:43.783Z,20.70
2019-04-10T10:35:11.647Z,19.93
2019-04-10T10:37:39.059Z,19.70
2019-04-10T10:40:08.880Z,18.03
2019-04-10T10:42:38.606Z,19.90
2019-04-10T10:45:07.202Z,18.07
2019-04-10T10:47:34.600Z,18.67
2019-04-10T10:50:02.049Z,18.17
2019-04-10T10:52:29.441Z,19.23
2019-04-10T10:54:56.996Z,18.70
2019-04-10T10:57:24.863Z,17.37
2019-04-10T10:59:52.228Z,18.73
2019-04-10T11:02:19.663Z,18.23
2019-04-10T11:04:47.550Z,19.60
2019-04-10T11:07:14.903Z,18.43
2019-04-10T11:09:42.191Z,18.53
2019-04-10T11:12:10.043Z,18.20
2019-04-10T11:14:37.427Z,19.33
2019-04-10T11:17:05.416Z,19.47
2019-04-10T11:19:33.026Z,19.47
2019-04-10T11:22:00.385Z,19.70
2019-04-10T11:24:28.369Z,20.77
2019-04-10T11:26:55.873Z,18.57
2019-04-10T11:29:23.784Z,18.43
2019-04-10T11:31:51.329Z,18.67
2019-04-10T11:34:18.928Z,17.92
2019-04-10T11:36:46.513Z,17.45
2019-04-10T11:39:22.109Z,18.37
2019-04-10T11:41:43.384Z,16.70
2019-04-10T11:44:11.513Z,14.98
2019-04-10T11:46:41.871Z,15.20
2019-04-10T11:49:11.142Z,14.43
2019-04-10T11:51:38.910Z,12.82
2019-04-10T11:54:11.009Z,14.85
2019-04-10T11:56:36.313Z,15.60
2019-04-10T11:59:07.619Z,14.00
2019-04-10T12:05:25.377Z,14.90
2019-04-10T12:08:17.882Z,15.78
2019-04-10T12:13:10.528Z,14.83
2019-04-10T12:15:38.644Z,17.07
2019-04-10T12:18:06.590Z,14.55
2019-04-10T12:20:33.968Z,15.97
2019-04-10T12:23:01.241Z,13.95
2019-04-10T12:25:29.062Z,14.90
2019-04-10T12:27:56.423Z,16.17
2019-04-10T12:30:23.688Z,15.13
2019-04-10T12:32:51.029Z,14.73
2019-04-10T12:35:18.348Z,14.87
2019-04-10T12:37:45.659Z,15.08
2019-04-10T12:40:13.954Z,14.05
2019-04-10T12:42:41.388Z,15.58
2019-04-10T12:45:09.031Z,14.10
2019-04-10T12:47:36.364Z,14.05
2019-04-10T12:50:03.979Z,13.65
2019-04-10T12:52:32.318Z,15.18
2019-04-10T12:54:59.800Z,13.93
2019-04-10T12:57:27.146Z,14.28
2019-04-10T13:00:00.707Z,14.28
2019-04-10T13:02:23.630Z,14.10
2019-04-10T13:04:50.894Z,14.20
2019-04-10T13:07:19.195Z,13.70
2019-04-10T13:09:46.723Z,14.50
2019-04-10T13:12:13.988Z,15.30
2019-04-10T13:14:41.290Z,14.25
2019-04-10T13:17:08.909Z,14.93
2019-04-10T13:19:37.427Z,13.03
2019-04-10T13:22:04.939Z,14.90
2019-04-10T13:24:33.320Z,13.98
2019-04-10T13:27:01.696Z,13.15
2019-04-10T13:29:30.052Z,13.80
2019-04-10T13:31:57.372Z,13.35
2019-04-10T13:34:24.999Z,13.08
2019-04-10T13:36:52.243Z,12.60
2019-04-10T13:39:20.429Z,14.00
2019-04-10T13:41:48.394Z,12.63
2019-04-10T13:44:16.308Z,12.33
2019-04-10T13:46:44.688Z,11.90
2019-04-10T13:49:12.250Z,12.73
2019-04-10T13:51:39.599Z,12.37
2019-04-10T13:54:06.864Z,12.40
2019-04-10T13:56:34.122Z,13.85
2019-04-10T13:59:01.605Z,12.90
2019-04-10T14:01:31.534Z,12.47
2019-04-10T14:04:00.961Z,12.13
2019-04-10T14:06:29.441Z,12.05
2019-04-10T14:09:12.034Z,12.63
2019-04-10T14:11:27.070Z,12.88
2019-04-10T14:13:54.484Z,13.83
2019-04-10T14:16:22.727Z,11.93
2019-04-10T14:18:50.863Z,13.28
2019-04-10T14:21:18.873Z,12.60
2019-04-10T14:23:47.225Z,11.73
2019-04-10T14:26:30.134Z,13.00
2019-04-10T14:28:55.491Z,12.10
2019-04-10T14:31:26.583Z,11.70
2019-04-10T14:33:54.041Z,12.88
2019-04-10T14:36:22.305Z,14.13
2019-04-10T14:38:49.839Z,15.28
2019-04-10T14:41:17.870Z,13.78
2019-04-10T14:43:46.652Z,13.93
2019-04-10T14:46:14.572Z,13.00
2019-04-10T14:48:42.454Z,13.88
2019-04-10T14:51:10.266Z,14.33
2019-04-10T14:53:37.899Z,14.20
2019-04-10T14:56:06.898Z,14.35
2019-04-10T14:58:35.418Z,13.50
2019-04-10T15:01:06.842Z,13.75
2019-04-10T15:03:32.840Z,12.75
2019-04-10T15:06:02.221Z,13.72
2019-04-10T15:08:29.586Z,14.40
2019-04-10T15:10:56.853Z,12.73
2019-04-10T15:13:24.424Z,14.43
2019-04-10T15:15:52.943Z,13.72
2019-04-10T15:18:20.476Z,13.25
2019-04-10T15:20:47.839Z,14.00
2019-04-10T15:23:16.334Z,13.43
2019-04-10T15:25:51.170Z,13.78
2019-04-10T15:28:18.751Z,12.63
2019-04-10T15:30:49.271Z,12.57
2019-04-10T15:33:16.511Z,13.60
2019-04-10T15:35:44.743Z,14.40
2019-04-10T15:38:12.129Z,13.30
2019-04-10T15:40:39.410Z,12.98
2019-04-10T15:43:06.877Z,14.15
2019-04-10T15:45:34.160Z,12.93
2019-04-10T15:48:03.228Z,12.40
2019-04-10T15:50:30.774Z,13.35
2019-04-10T15:52:58.459Z,13.17
2019-04-10T15:55:25.874Z,11.63
2019-04-10T15:57:56.836Z,13.33
2019-04-10T16:00:23.200Z,11.23
2019-04-10T16:02:51.001Z,13.00
2019-04-10T16:05:19.452Z,12.90
2019-04-10T16:07:47.028Z,13.20
2019-04-10T16:10:43.275Z,12.37
2019-04-10T16:13:34.559Z,12.40
2019-04-10T16:16:27.755Z,12.63
2019-04-10T16:19:04.625Z,13.03
2019-04-10T16:21:32.181Z,11.23
2019-04-10T16:24:04.608Z,12.80
2019-04-10T16:26:33.532Z,12.13
2019-04-10T16:29:02.014Z,12.27
2019-04-10T16:31:29.839Z,12.53
2019-04-10T16:33:57.229Z,11.73
2019-04-10T16:36:26.355Z,17.80
2019-04-10T16:39:13.499Z,12.17
2019-04-10T16:41:41.786Z,11.80
2019-04-10T16:44:09.205Z,11.90
2019-04-10T16:46:36.576Z,12.40
2019-04-10T16:49:04.405Z,12.30
2019-04-10T16:51:32.294Z,12.77
2019-04-10T16:54:00.157Z,12.70
2019-04-10T16:56:27.593Z,11.83
2019-04-10T16:58:58.367Z,12.27
2019-04-10T17:01:26.819Z,11.10
2019-04-10T17:03:54.338Z,11.80
2019-04-10T17:06:21.913Z,12.47
2019-04-10T17:08:49.395Z,12.93
2019-04-10T17:11:16.802Z,12.27
2019-04-10T17:13:48.843Z,15.30
2019-04-10T17:16:17.636Z,13.83
2019-04-10T17:18:45.526Z,11.63
2019-04-10T17:21:13.108Z,11.27
2019-04-10T17:23:40.995Z,11.50
2019-04-10T17:26:09.110Z,12.80
2019-04-10T17:28:36.523Z,12.33
2019-04-10T17:31:04.630Z,13.87
2019-04-10T17:33:32.311Z,12.43
2019-04-10T17:36:00.149Z,12.17
2019-04-10T17:38:28.718Z,11.63
2019-04-10T17:40:58.767Z,12.07
2019-04-10T17:43:26.705Z,12.47
2019-04-10T17:45:55.515Z,12.00
2019-04-10T17:48:22.939Z,13.77
2019-04-10T17:50:50.194Z,12.73
2019-04-10T17:53:18.469Z,13.47
2019-04-10T17:55:45.928Z,11.73
2019-04-10T17:58:13.650Z,10.73
2019-04-10T18:00:43.306Z,11.57
2019-04-10T18:03:11.045Z,13.17
2019-04-10T18:05:39.154Z,11.87
2019-04-10T18:08:06.706Z,12.93
2019-04-10T18:10:43.555Z,12.67
2019-04-10T18:13:03.388Z,12.00
2019-04-10T18:15:30.871Z,12.37
2019-04-10T18:17:58.142Z,13.40
2019-04-10T18:20:26.262Z,12.13
2019-04-10T18:22:53.688Z,12.60
2019-04-10T18:25:22.118Z,12.13
2019-04-10T18:27:49.512Z,12.33
2019-04-10T18:30:16.824Z,14.13
2019-04-10T18:32:44.214Z,12.50
2019-04-10T18:35:11.451Z,11.50
2019-04-10T18:37:39.188Z,12.07
2019-04-10T18:40:07.490Z,12.53
2019-04-10T18:42:35.832Z,12.73
2019-04-10T18:45:05.791Z,11.63
2019-04-10T18:47:34.973Z,10.80
2019-04-10T18:50:04.318Z,11.93
2019-04-10T18:52:32.147Z,12.93
2019-04-10T18:55:00.412Z,11.70
2019-04-10T18:57:31.292Z,11.10
2019-04-10T19:00:18.777Z,11.33
2019-04-10T19:02:59.256Z,11.17
2019-04-10T19:05:30.347Z,11.40
2019-04-10T19:07:58.630Z,11.87
2019-04-10T19:10:26.389Z,11.10
2019-04-10T19:12:53.920Z,11.90
2019-04-10T19:15:22.429Z,11.00
2019-04-10T19:17:50.950Z,10.93
2019-04-10T19:20:18.379Z,12.03
2019-04-10T19:22:46.804Z,11.30
2019-04-10T19:25:14.571Z,12.17
2019-04-10T19:27:42.515Z,11.83
2019-04-10T19:30:28.904Z,10.53
2019-04-10T19:32:57.377Z,11.07
2019-04-10T19:35:28.589Z,11.97
2019-04-10T19:37:56.729Z,11.80
2019-04-10T19:40:24.468Z,12.23
2019-04-10T19:42:51.756Z,12.03
2019-04-10T19:45:19.509Z,10.97
2019-04-10T19:47:46.956Z,11.13
2019-04-10T19:50:23.432Z,10.97
2019-04-10T19:52:51.247Z,11.23
2019-04-10T19:55:20.547Z,11.53
2019-04-10T19:57:47.867Z,11.83
2019-04-10T20:00:18.113Z,11.27
2019-04-10T20:02:46.666Z,10.17
2019-04-10T20:05:15.023Z,10.80
2019-04-10T20:07:43.071Z,10.93
2019-04-10T20:10:10.959Z,12.23
2019-04-10T20:12:38.332Z,10.70
2019-04-10T20:15:12.184Z,10.97
2019-04-10T20:17:39.925Z,11.13
2019-04-10T20:20:10.912Z,10.80
2019-04-10T20:22:39.122Z,10.00
2019-04-10T20:25:06.762Z,10.07
2019-04-10T20:27:50.017Z,10.73
2019-04-10T20:30:31.405Z,10.53
2019-04-10T20:32:58.748Z,10.30
2019-04-10T20:35:26.568Z,10.83
2019-04-10T20:37:54.029Z,12.17
2019-04-10T20:40:33.875Z,10.17
2019-04-10T20:43:02.587Z,10.73
2019-04-10T20:45:31.521Z,10.23
2019-04-10T20:48:00.182Z,10.67
2019-04-10T20:50:28.020Z,9.77
2019-04-10T20:52:55.802Z,9.93
2019-04-10T20:55:23.861Z,10.10
2019-04-10T20:57:52.086Z,10.37
2019-04-10T21:00:36.737Z,10.00
2019-04-10T21:03:04.011Z,9.77
2019-04-10T21:05:31.707Z,9.10
2019-04-10T21:07:59.884Z,9.97
2019-04-10T21:10:27.228Z,10.13
2019-04-10T21:12:54.685Z,10.63
2019-04-10T21:15:22.114Z,10.67
2019-04-10T21:17:50.690Z,10.30
2019-04-10T21:20:18.252Z,9.67
2019-04-10T21:22:45.643Z,9.77
2019-04-10T21:25:12.909Z,9.43
2019-04-10T21:27:40.524Z,10.17
2019-04-10T21:30:26.519Z,10.77
2019-04-10T21:33:00.627Z,9.00
2019-04-10T21:35:32.762Z,9.00
2019-04-10T21:38:00.329Z,9.80
2019-04-10T21:40:27.637Z,9.50
2019-04-10T21:42:56.029Z,10.53
2019-04-10T21:45:24.370Z,9.37
2019-04-10T21:47:52.330Z,10.40
2019-04-10T21:50:21.469Z,9.90
2019-04-10T21:52:49.769Z,10.53
2019-04-10T21:55:17.210Z,10.57
2019-04-10T21:57:44.827Z,10.13
2019-04-10T22:00:14.565Z,10.10
2019-04-10T22:02:42.144Z,9.30
2019-04-10T22:05:10.305Z,10.13
2019-04-10T22:07:53.688Z,10.20
2019-04-10T22:10:30.243Z,11.47
2019-04-10T22:12:57.504Z,11.37
2019-04-10T22:15:37.192Z,12.40
2019-04-10T22:18:05.144Z,13.80
2019-04-10T22:20:32.615Z,12.23
2019-04-10T22:22:59.944Z,11.50
2019-04-10T22:25:27.716Z,12.03
2019-04-10T22:27:56.224Z,12.70
2019-04-10T22:30:23.684Z,12.40
2019-04-10T22:32:51.342Z,13.63
2019-04-10T22:35:19.411Z,13.23
2019-04-10T22:37:46.887Z,13.30
2019-04-10T22:40:15.256Z,13.20
2019-04-10T22:42:46.753Z,13.17
2019-04-10T22:45:25.742Z,12.73
2019-04-10T22:47:52.688Z,14.37
2019-04-10T22:50:20.361Z,13.43
2019-04-10T22:52:48.690Z,14.23
2019-04-10T22:55:16.055Z,13.97
2019-04-10T22:57:44.191Z,13.97
2019-04-10T23:00:15.922Z,13.47
2019-04-10T23:02:44.186Z,14.97
2019-04-10T23:05:12.048Z,14.43
2019-04-10T23:07:39.384Z,13.90
2019-04-10T23:10:12.926Z,13.90
2019-04-10T23:12:50.183Z,15.50
2019-04-10T23:15:11.352Z,15.30
2019-04-10T23:17:39.054Z,14.77
2019-04-10T23:20:06.837Z,16.07
2019-04-10T23:22:34.254Z,15.37
2019-04-10T23:25:02.867Z,14.20
2019-04-10T23:27:30.209Z,14.90
2019-04-10T23:29:57.525Z,14.93
2019-04-10T23:32:24.815Z,15.00
2019-04-10T23:34:52.729Z,15.27
2019-04-10T23:37:20.513Z,14.60
2019-04-10T23:39:48.255Z,14.93
2019-04-10T23:42:15.918Z,14.97
2019-04-10T23:44:43.223Z,14.07
2019-04-10T23:47:11.708Z,14.50
2019-04-10T23:49:39.116Z,13.63
2019-04-10T23:52:07.550Z,14.00
2019-04-10T23:54:35.488Z,14.37
2019-04-10T23:57:03.177Z,13.60
2019-04-10T23:59:30.902Z,15.03
